Time;durP1;ratioP1;P1;durP2;ratioP2;P2;SDS_P1;SDS_P2;PMS_P1;PMS_P2;Temp;Humidity;BMP_temperature;BMP_pressure;BME280_temperature;BME280_humidity;BME280_pressure;Samples;Min_cycle;Max_cycle;Signal;HPM_P1;HPM_P2
2023/06/09 00:01:11;;;;;;;6.67;6.17;;;;;;;19.53;70.20;100819.13;5011783;28;20685;-82
2023/06/09 00:03:39;;;;;;;6.97;6.37;;;;;;;19.51;69.34;100814.91;5010856;28;20230;-82
2023/06/09 00:06:08;;;;;;;6.90;6.30;;;;;;;19.48;68.57;100820.56;5012332;28;20222;-82
2023/06/09 00:08:35;;;;;;;7.03;6.43;;;;;;;19.43;68.16;100818.31;5011655;28;20207;-84
2023/06/09 00:11:01;;;;;;;7.07;6.47;;;;;;;19.42;68.20;100825.56;5010553;28;20309;-83
2023/06/09 00:13:28;;;;;;;6.73;6.13;;;;;;;19.42;67.93;100819.31;5009254;28;20232;-84
2023/06/09 00:15:55;;;;;;;8.90;6.63;;;;;;;19.42;67.81;100827.41;5011492;28;20221;-83
2023/06/09 00:18:24;;;;;;;7.37;6.77;;;;;;;19.42;67.69;100824.69;5017702;28;20778;-83
2023/06/09 00:20:51;;;;;;;7.40;6.80;;;;;;;19.40;67.60;100821.28;5018582;28;20219;-83
2023/06/09 00:23:19;;;;;;;7.20;6.60;;;;;;;19.41;67.84;100823.00;5007625;28;20263;-83
2023/06/09 00:25:45;;;;;;;7.00;6.40;;;;;;;19.40;67.85;100819.44;5008312;28;20201;-83
2023/06/09 00:28:12;;;;;;;6.93;6.30;;;;;;;19.40;67.92;100819.44;5009150;28;20208;-83
2023/06/09 00:30:38;;;;;;;8.17;7.47;;;;;;;19.40;67.82;100824.00;5009727;28;20236;-83
2023/06/09 00:33:05;;;;;;;7.13;6.53;;;;;;;19.35;67.73;100823.59;5006471;28;20206;-83
2023/06/09 00:35:31;;;;;;;7.70;6.93;;;;;;;19.31;68.26;100816.81;5015194;28;20221;-83
2023/06/09 00:37:58;;;;;;;7.40;6.77;;;;;;;19.28;68.57;100819.81;5016273;28;20265;-82
2023/06/09 00:40:26;;;;;;;7.60;7.03;;;;;;;19.27;68.97;100826.19;5017475;28;20213;-83
2023/06/09 00:42:52;;;;;;;7.37;6.70;;;;;;;19.25;69.09;100822.78;5013582;28;20196;-83
2023/06/09 00:45:19;;;;;;;7.70;6.90;;;;;;;19.23;69.40;100820.25;5011786;28;20222;-82
2023/06/09 00:47:46;;;;;;;7.70;7.00;;;;;;;19.22;69.41;100821.22;5013282;28;20210;-82
2023/06/09 00:50:13;;;;;;;7.27;6.67;;;;;;;19.20;69.49;100808.88;5013382;28;20221;-82
2023/06/09 00:52:41;;;;;;;7.57;6.90;;;;;;;19.17;69.51;100820.81;5012987;28;20210;-82
2023/06/09 00:55:09;;;;;;;7.93;7.13;;;;;;;19.16;69.54;100816.44;5009317;28;20310;-82
2023/06/09 00:57:39;;;;;;;7.17;6.57;;;;;;;19.14;69.31;100815.75;5007485;28;20230;-83
2023/06/09 01:00:07;;;;;;;9.40;7.83;;;;;;;19.13;69.48;100819.44;5015512;28;20233;-83
2023/06/09 01:02:38;;;;;;;8.30;7.60;;;;;;;19.12;69.49;100817.75;5006314;28;20213;-82
2023/06/09 01:05:05;;;;;;;7.87;6.90;;;;;;;19.08;69.65;100819.88;5010850;28;20257;-82
2023/06/09 01:07:38;;;;;;;11.57;7.40;;;;;;;19.08;69.48;100813.63;5006021;28;20209;-82
2023/06/09 01:10:12;;;;;;;7.27;6.67;;;;;;;19.07;69.41;100817.31;5003499;28;20654;-82
2023/06/09 01:12:51;;;;;;;8.17;7.40;;;;;;;19.04;69.37;100813.06;5007439;28;20209;-82
2023/06/09 01:15:21;;;;;;;9.13;7.93;;;;;;;18.96;69.93;100804.03;5006316;28;20229;-82
2023/06/09 01:17:51;;;;;;;9.37;7.70;;;;;;;18.91;70.63;100811.69;5013763;28;20240;-82
2023/06/09 01:20:27;;;;;;;8.50;7.70;;;;;;;18.85;70.79;100802.34;5014405;28;20204;-82
2023/06/09 01:23:03;;;;;;;8.40;7.60;;;;;;;18.81;71.34;100802.78;5019505;28;20210;-82
2023/06/09 01:25:35;;;;;;;7.70;7.00;;;;;;;18.77;72.34;100796.84;5010354;28;20214;-82
2023/06/09 01:28:05;;;;;;;7.90;7.20;;;;;;;18.75;72.58;100804.22;5008518;28;20200;-82
2023/06/09 01:30:34;;;;;;;8.13;7.43;;;;;;;18.75;73.13;100803.38;5006620;28;20229;-83
2023/06/09 01:33:04;;;;;;;8.50;7.63;;;;;;;18.72;73.27;100797.25;5005923;28;20218;-82
2023/06/09 01:35:31;;;;;;;7.57;6.97;;;;;;;18.71;73.00;100803.66;5000964;28;20213;-82
2023/06/09 01:37:58;;;;;;;7.77;7.03;;;;;;;18.71;72.99;100798.25;5000290;28;20230;-82
2023/06/09 01:40:26;;;;;;;7.20;6.50;;;;;;;18.71;72.98;100806.34;5011686;28;20204;-82
2023/06/09 01:42:58;;;;;;;10.93;7.17;;;;;;;18.70;72.95;100815.44;5010062;28;20678;-82
2023/06/09 01:45:25;;;;;;;7.80;7.03;;;;;;;18.68;73.17;100813.88;5007753;28;20198;-82
2023/06/09 01:47:51;;;;;;;9.00;8.20;;;;;;;18.65;73.58;100801.53;5006925;28;20260;-83
2023/06/09 01:50:24;;;;;;;8.47;7.20;;;;;;;18.62;73.92;100812.63;5014502;28;20196;-82
2023/06/09 01:52:58;;;;;;;9.43;8.40;;;;;;;18.60;74.43;100817.31;5004481;28;20202;-82
2023/06/09 01:55:28;;;;;;;10.67;7.93;;;;;;;18.55;74.40;100808.78;5015103;28;20861;-82
2023/06/09 01:58:00;;;;;;;8.63;7.83;;;;;;;18.49;74.34;100809.34;5006627;28;20320;-82
2023/06/09 02:00:28;;;;;;;10.57;7.87;;;;;;;18.41;74.78;100798.44;5009738;28;20216;-82
2023/06/09 02:02:59;;;;;;;8.67;7.93;;;;;;;18.37;75.07;100794.31;5010998;28;20218;-82
2023/06/09 02:05:27;;;;;;;8.67;7.97;;;;;;;18.33;75.32;100801.84;5006255;28;20205;-82
2023/06/09 02:07:55;;;;;;;10.87;8.00;;;;;;;18.29;75.78;100794.16;5018111;28;20219;-82
2023/06/09 02:10:22;;;;;;;10.07;7.57;;;;;;;18.24;75.71;100781.16;5018864;28;20216;-82
2023/06/09 02:12:49;;;;;;;8.40;7.50;;;;;;;18.19;75.73;100788.78;4996310;28;20203;-82
2023/06/09 02:15:18;;;;;;;8.43;7.47;;;;;;;18.14;76.30;100795.59;4996182;28;20248;-83
2023/06/09 02:17:45;;;;;;;8.83;8.10;;;;;;;18.12;76.64;100792.19;5007178;28;20317;-83
2023/06/09 02:20:12;;;;;;;10.70;8.20;;;;;;;18.11;77.08;100795.88;5010907;28;20205;-82
2023/06/09 02:22:38;;;;;;;9.43;8.00;;;;;;;18.11;77.19;100790.50;5010249;28;20583;-82
2023/06/09 02:25:06;;;;;;;9.67;8.40;;;;;;;18.11;77.38;100791.34;5019079;28;20229;-82
2023/06/09 02:27:33;;;;;;;9.43;8.00;;;;;;;18.10;77.41;100788.78;5015311;28;20209;-82
2023/06/09 02:29:59;;;;;;;9.97;8.20;;;;;;;18.09;77.14;100795.19;5001667;28;20212;-82
2023/06/09 02:32:28;;;;;;;9.10;8.30;;;;;;;18.03;77.15;100797.47;5006988;28;20217;-82
2023/06/09 02:34:54;;;;;;;8.73;7.67;;;;;;;17.99;77.33;100803.25;5019990;28;20312;-82
2023/06/09 02:37:21;;;;;;;8.20;7.53;;;;;;;17.96;77.40;100801.69;5007852;28;20220;-82
2023/06/09 02:39:47;;;;;;;9.23;8.07;;;;;;;17.93;77.75;100810.06;5005107;28;20687;-82
2023/06/09 02:42:14;;;;;;;8.60;7.87;;;;;;;17.93;78.19;100814.59;5001979;28;21042;-82
2023/06/09 02:44:41;;;;;;;9.30;8.10;;;;;;;17.93;78.35;100804.66;5008111;28;20225;-82
2023/06/09 02:47:07;;;;;;;8.93;8.03;;;;;;;17.93;78.50;100815.44;4999146;28;20200;-82
2023/06/09 02:49:35;;;;;;;9.10;8.27;;;;;;;17.94;78.55;100811.75;5009801;28;20215;-82
2023/06/09 02:52:02;;;;;;;9.40;8.60;;;;;;;17.95;78.54;100813.47;5003323;28;20212;-82
2023/06/09 02:54:28;;;;;;;10.83;7.80;;;;;;;17.94;78.56;100811.75;5004070;28;20224;-83
2023/06/09 02:56:56;;;;;;;9.17;8.20;;;;;;;17.93;78.69;100810.06;5006785;28;20212;-82
2023/06/09 02:59:22;;;;;;;9.17;8.27;;;;;;;17.95;78.94;100820.69;5021526;28;20227;-82
2023/06/09 03:01:49;;;;;;;8.47;7.67;;;;;;;17.92;78.75;100824.53;5014526;28;20203;-82
2023/06/09 03:04:17;;;;;;;9.27;8.37;;;;;;;17.89;78.89;100822.13;5012196;28;20225;-81
2023/06/09 03:06:48;;;;;;;9.73;8.50;;;;;;;17.85;78.90;100819.84;5022038;28;20220;-81
2023/06/09 03:09:15;;;;;;;9.10;8.30;;;;;;;17.82;79.28;100826.34;4998423;28;20234;-82
2023/06/09 03:11:41;;;;;;;8.73;7.83;;;;;;;17.80;79.43;100825.66;5004136;28;20209;-82
2023/06/09 03:14:08;;;;;;;9.63;8.83;;;;;;;17.80;79.74;100824.78;5010604;28;20225;-82
2023/06/09 03:16:34;;;;;;;8.90;8.10;;;;;;;17.76;79.89;100818.81;4997060;28;20801;-82
2023/06/09 03:19:01;;;;;;;9.47;8.67;;;;;;;17.75;79.86;100830.59;5013526;28;20601;-82
2023/06/09 03:21:27;;;;;;;9.70;8.80;;;;;;;17.75;80.25;100832.44;4999151;28;20236;-82
2023/06/09 03:23:56;;;;;;;9.13;8.23;;;;;;;17.74;80.42;100836.13;5010612;28;20258;-82
2023/06/09 03:26:23;;;;;;;8.43;7.70;;;;;;;17.71;80.52;100837.28;5013446;28;20215;-82
2023/06/09 03:28:50;;;;;;;9.00;8.00;;;;;;;17.69;80.97;100841.94;5017047;28;20228;-82
2023/06/09 03:31:17;;;;;;;9.00;8.10;;;;;;;17.68;81.21;100842.94;5011439;28;20216;-82
2023/06/09 03:33:43;;;;;;;9.13;7.80;;;;;;;17.68;81.29;100840.22;5009368;28;20316;-82
2023/06/09 03:36:10;;;;;;;8.77;7.97;;;;;;;17.68;81.56;100849.16;4996304;28;20211;-82
2023/06/09 03:38:37;;;;;;;9.67;8.33;;;;;;;17.69;81.74;100845.47;5003560;28;20255;-83
2023/06/09 03:41:04;;;;;;;10.73;7.57;;;;;;;17.69;81.58;100845.47;5006718;28;20205;-82
2023/06/09 03:43:31;;;;;;;10.73;7.77;;;;;;;17.65;81.40;100845.88;5011557;28;20232;-82
2023/06/09 03:45:58;;;;;;;8.97;7.70;;;;;;;17.60;81.35;100840.03;5003200;28;20213;-82
2023/06/09 03:48:24;;;;;;;10.83;7.70;;;;;;;17.53;81.58;100849.66;5009741;28;20682;-82
2023/06/09 03:50:51;;;;;;;9.77;7.97;;;;;;;17.49;82.36;100842.84;5008452;28;20209;-82
2023/06/09 03:53:17;;;;;;;12.07;8.03;;;;;;;17.47;82.55;100842.97;5008491;28;20204;-82
2023/06/09 03:55:44;;;;;;;11.57;8.00;;;;;;;17.47;82.76;100842.97;5011140;28;20699;-82
2023/06/09 03:58:12;;;;;;;8.23;7.37;;;;;;;17.48;83.06;100851.91;5014903;28;20705;-82
2023/06/09 04:00:38;;;;;;;10.63;8.43;;;;;;;17.48;83.41;100851.91;5010176;28;20220;-82
2023/06/09 04:03:06;;;;;;;13.37;8.67;;;;;;;17.49;83.42;100854.47;5005439;28;20240;-82
2023/06/09 04:05:33;;;;;;;9.27;7.53;;;;;;;17.49;83.51;100850.91;4998010;28;20620;-82
2023/06/09 04:07:59;;;;;;;9.20;8.33;;;;;;;17.51;83.78;100857.88;5010097;28;20208;-82
2023/06/09 04:10:26;;;;;;;12.67;9.10;;;;;;;17.51;83.75;100860.56;5013649;28;20199;-82
2023/06/09 04:12:52;;;;;;;11.07;10.07;;;;;;;17.53;83.99;100853.22;5020312;28;20208;-82
2023/06/09 04:15:20;;;;;;;12.10;10.63;;;;;;;17.52;83.83;100858.72;5017436;28;20226;-82
2023/06/09 04:17:46;;;;;;;11.83;10.67;;;;;;;17.51;83.96;100851.63;5011332;28;20211;-81
2023/06/09 04:20:13;;;;;;;11.30;10.40;;;;;;;17.51;84.08;100860.56;5009404;28;20216;-82
2023/06/09 04:22:47;;;;;;;10.93;9.87;;;;;;;17.52;84.14;100853.34;5000763;28;20815;-82
2023/06/09 04:25:13;;;;;;;11.63;10.47;;;;;;;17.55;84.36;100853.06;5001519;28;20316;-82
2023/06/09 04:27:41;;;;;;;11.00;10.00;;;;;;;17.57;84.19;100861.84;5001883;28;20249;-82
2023/06/09 04:30:08;;;;;;;11.60;10.50;;;;;;;17.59;84.05;100849.09;5009333;28;20213;-82
2023/06/09 04:32:36;;;;;;;9.77;8.83;;;;;;;17.60;84.10;100850.78;5010932;28;20203;-83
2023/06/09 04:35:03;;;;;;;11.27;9.80;;;;;;;17.58;84.11;100848.25;5012185;28;20261;-81
2023/06/09 04:37:30;;;;;;;11.40;10.30;;;;;;;17.56;83.96;100843.97;5008296;28;20209;-83
2023/06/09 04:39:58;;;;;;;10.63;9.67;;;;;;;17.54;83.94;100852.22;4998673;28;20316;-82
2023/06/09 04:42:24;;;;;;;11.57;10.53;;;;;;;17.52;84.00;100848.81;5014492;28;20216;-82
2023/06/09 04:44:53;;;;;;;12.87;10.30;;;;;;;17.51;84.09;100851.63;5005861;28;20231;-82
2023/06/09 04:47:20;;;;;;;11.23;10.23;;;;;;;17.50;84.25;100849.94;5006919;28;20302;-82
2023/06/09 04:49:49;;;;;;;10.63;9.73;;;;;;;17.49;84.52;100851.75;5010915;28;20224;-82
2023/06/09 04:52:17;;;;;;;10.37;9.33;;;;;;;17.48;85.04;100847.38;5008196;28;20208;-82
2023/06/09 04:54:44;;;;;;;10.90;10.00;;;;;;;17.51;85.21;100848.94;5012302;28;20302;-82
2023/06/09 04:57:11;;;;;;;10.67;9.67;;;;;;;17.51;85.29;100849.78;5011815;28;20641;-82
2023/06/09 04:59:40;;;;;;;11.00;9.90;;;;;;;17.54;85.37;100845.97;5001566;28;20327;-81
2023/06/09 05:02:07;;;;;;;12.63;10.17;;;;;;;17.56;85.52;100846.66;5011880;28;20204;-82
2023/06/09 05:04:34;;;;;;;11.43;10.33;;;;;;;17.60;85.66;100851.66;5014736;28;20604;-81
2023/06/09 05:07:03;;;;;;;11.30;10.30;;;;;;;17.64;85.50;100847.72;5014064;28;20222;-81
2023/06/09 05:09:30;;;;;;;11.30;10.40;;;;;;;17.69;85.49;100850.03;5014093;28;20209;-81
2023/06/09 05:11:56;;;;;;;12.63;11.40;;;;;;;17.74;85.46;100850.44;5013543;28;20208;-81
2023/06/09 05:14:23;;;;;;;12.10;11.07;;;;;;;17.79;85.11;100856.28;5013699;28;20240;-81
2023/06/09 05:16:49;;;;;;;12.57;11.30;;;;;;;17.84;84.66;100848.63;5014685;28;20205;-81
2023/06/09 05:19:16;;;;;;;12.67;11.60;;;;;;;17.88;84.05;100852.75;5014186;28;20232;-81
2023/06/09 05:21:45;;;;;;;13.73;12.57;;;;;;;17.91;83.87;100849.78;5002404;28;20790;-81
2023/06/09 05:24:13;;;;;;;13.20;11.77;;;;;;;17.96;83.62;100852.91;4993201;28;20642;-81
2023/06/09 05:26:40;;;;;;;12.83;11.63;;;;;;;18.01;83.55;100845.25;5007522;28;20205;-82
2023/06/09 05:29:06;;;;;;;13.17;12.13;;;;;;;18.07;83.50;100859.16;5019539;28;20680;-81
2023/06/09 05:31:33;;;;;;;13.43;12.23;;;;;;;18.14;83.54;100860.28;5030990;28;20199;-82
2023/06/09 05:33:59;;;;;;;12.90;11.60;;;;;;;18.20;83.65;100860.59;5007615;28;20237;-81
2023/06/09 05:36:26;;;;;;;14.27;12.87;;;;;;;18.27;83.52;100864.41;5009350;28;20203;-82
2023/06/09 05:38:52;;;;;;;13.87;12.60;;;;;;;18.35;83.31;100869.09;5003996;28;20229;-82
2023/06/09 05:41:20;;;;;;;14.17;12.87;;;;;;;18.42;83.08;100864.00;5011540;28;20213;-82
2023/06/09 05:43:47;;;;;;;14.20;13.00;;;;;;;18.46;82.98;100866.25;5003568;28;20306;-82
2023/06/09 05:46:13;;;;;;;13.90;12.43;;;;;;;18.52;83.10;100864.84;5012064;28;20205;-82
2023/06/09 05:48:39;;;;;;;13.43;12.07;;;;;;;18.60;82.90;100868.56;4999083;28;20207;-83
2023/06/09 05:51:06;;;;;;;12.67;11.57;;;;;;;18.66;82.36;100875.22;5012236;28;20208;-82
2023/06/09 05:53:34;;;;;;;14.53;13.23;;;;;;;18.73;82.15;100879.91;5019746;28;20228;-83
2023/06/09 05:56:00;;;;;;;14.17;12.90;;;;;;;18.81;81.82;100881.88;5015351;28;20225;-82
2023/06/09 05:58:28;;;;;;;13.07;12.03;;;;;;;18.88;81.46;100882.16;5017186;28;20697;-82
2023/06/09 06:00:57;;;;;;;13.43;12.23;;;;;;;18.94;80.72;100886.97;5008436;28;20707;-82
2023/06/09 06:03:24;;;;;;;14.00;12.90;;;;;;;19.00;80.13;100891.78;5014544;28;20234;-82
2023/06/09 06:05:51;;;;;;;14.23;12.83;;;;;;;19.06;79.60;100886.66;5009647;28;20705;-83
2023/06/09 06:08:17;;;;;;;13.53;12.13;;;;;;;19.11;78.94;100883.53;5011637;28;20207;-83
2023/06/09 06:10:44;;;;;;;13.97;12.50;;;;;;;19.15;78.64;100889.50;5013298;28;20306;-82
2023/06/09 06:13:10;;;;;;;13.43;12.30;;;;;;;19.21;78.32;100886.19;5013642;28;20217;-82
2023/06/09 06:15:38;;;;;;;14.97;13.67;;;;;;;19.28;78.10;100888.16;5001880;28;20706;-83
2023/06/09 06:18:05;;;;;;;14.53;13.03;;;;;;;19.34;77.89;100887.59;5017855;28;20210;-83
2023/06/09 06:20:31;;;;;;;14.27;12.67;;;;;;;19.42;77.81;100890.38;5025633;28;20281;-83
2023/06/09 06:22:58;;;;;;;13.43;12.23;;;;;;;19.51;77.54;100890.53;5018041;28;20675;-83
2023/06/09 06:25:25;;;;;;;13.57;12.47;;;;;;;19.57;77.49;100882.66;5009425;28;20229;-83
2023/06/09 06:27:52;;;;;;;13.23;12.03;;;;;;;19.66;77.49;100895.28;5010947;28;20221;-83
2023/06/09 06:30:18;;;;;;;13.10;11.80;;;;;;;19.75;77.09;100897.09;5003144;28;20700;-83
2023/06/09 06:32:56;;;;;;;13.13;11.70;;;;;;;19.84;76.77;100898.03;5019237;28;20571;-84
2023/06/09 06:35:24;;;;;;;13.97;12.47;;;;;;;19.93;76.05;100897.13;5019270;28;20263;-84
2023/06/09 06:37:50;;;;;;;13.67;12.40;;;;;;;20.02;75.84;100890.81;5013169;28;20200;-84
2023/06/09 06:40:17;;;;;;;12.00;10.90;;;;;;;20.14;75.64;100894.16;5009283;28;20221;-84
2023/06/09 06:42:44;;;;;;;12.20;11.20;;;;;;;20.24;74.72;100894.94;5013003;28;20213;-83
2023/06/09 06:45:10;;;;;;;11.50;10.50;;;;;;;20.30;73.99;100894.31;5002654;28;20244;-83
2023/06/09 06:47:37;;;;;;;13.33;12.07;;;;;;;20.37;74.12;100887.31;5011765;28;20211;-84
2023/06/09 06:50:06;;;;;;;12.20;10.77;;;;;;;20.45;73.98;100890.09;5011564;28;20245;-83
2023/06/09 06:52:33;;;;;;;11.45;10.45;;;;;;;20.55;73.92;100897.28;5013155;28;20315;-84
2023/06/09 06:54:59;;;;;;;11.50;10.40;;;;;;;20.61;72.93;100905.63;5009714;28;20225;-83
2023/06/09 06:57:26;;;;;;;13.33;10.87;;;;;;;20.66;72.44;100906.00;5016099;28;20220;-83
2023/06/09 06:59:52;;;;;;;12.00;10.83;;;;;;;20.70;71.97;100902.00;5006109;28;20229;-83
2023/06/09 07:02:19;;;;;;;12.17;10.87;;;;;;;20.77;71.74;100903.09;5013512;28;20263;-83
2023/06/09 07:04:45;;;;;;;11.70;10.70;;;;;;;20.85;71.34;100901.41;5010211;28;20229;-83
2023/06/09 07:07:13;;;;;;;11.77;10.77;;;;;;;20.94;70.86;100897.78;5008283;28;20216;-83
2023/06/09 07:09:39;;;;;;;11.55;10.55;;;;;;;21.00;70.40;100907.97;5012101;28;20199;-83
2023/06/09 07:12:07;;;;;;;11.30;10.05;;;;;;;21.08;70.16;100905.31;5014148;28;20217;-82
2023/06/09 07:14:35;;;;;;;12.27;11.05;;;;;;;21.17;69.20;100909.78;5002747;28;20237;-83
2023/06/09 08:58:13;;;;;;;10.25;9.18;;;;;;;24.22;57.90;100907.63;5080977;27;20614;-71
2023/06/09 09:00:40;;;;;;;10.10;8.38;;;;;;;24.30;57.91;100903.19;5049962;28;21005;-70
2023/06/09 09:03:07;;;;;;;11.00;9.23;;;;;;;24.36;57.62;100902.47;5038316;28;20308;-71
2023/06/09 09:05:33;;;;;;;8.75;7.95;;;;;;;24.39;56.93;100902.94;5031047;28;20209;-70
2023/06/09 09:08:00;;;;;;;10.07;9.07;;;;;;;24.45;56.85;100894.06;5039121;28;20331;-71
2023/06/09 09:10:28;;;;;;;32.58;23.63;;;;;;;24.50;56.64;100896.25;5031608;28;20221;-70
2023/06/09 09:12:54;;;;;;;9.95;8.13;;;;;;;24.56;56.96;100890.06;5040556;28;20213;-72
2023/06/09 09:15:25;;;;;;;11.13;8.85;;;;;;;24.60;56.43;100901.44;5036852;28;20205;-73
2023/06/09 09:17:51;;;;;;;10.50;9.38;;;;;;;24.67;57.17;100891.53;5032428;28;20206;-72
2023/06/09 09:20:19;;;;;;;9.13;8.23;;;;;;;24.77;57.11;100894.81;5034151;28;20221;-72
2023/06/09 09:22:47;;;;;;;9.40;8.57;;;;;;;24.79;56.24;100898.22;5032994;28;20262;-72
2023/06/09 09:25:21;;;;;;;8.48;7.68;;;;;;;24.87;56.89;100887.25;5031308;28;20217;-73
2023/06/09 09:28:03;;;;;;;8.57;7.85;;;;;;;25.03;56.73;100887.13;5035259;28;20225;-71
2023/06/09 09:30:43;;;;;;;9.68;8.15;;;;;;;25.21;56.16;100884.06;5036874;28;20254;-73
2023/06/09 09:33:09;;;;;;;9.02;8.23;;;;;;;25.35;54.88;100891.41;5038535;28;20209;-74
2023/06/09 09:35:37;;;;;;;9.15;7.95;;;;;;;25.46;53.61;100888.19;5033447;28;20260;-75
2023/06/09 09:38:04;;;;;;;8.85;7.95;;;;;;;25.59;53.01;100891.13;5041769;28;20233;-72
2023/06/09 09:40:31;;;;;;;8.35;7.63;;;;;;;25.73;52.98;100888.59;5036539;28;20230;-73
2023/06/09 09:43:01;;;;;;;9.77;7.88;;;;;;;25.86;52.60;100886.88;5035505;28;20209;-72
2023/06/09 09:45:29;;;;;;;10.23;8.32;;;;;;;25.97;53.39;100887.44;5034278;28;20304;-71
2023/06/09 09:48:08;;;;;;;9.43;8.52;;;;;;;26.10;52.46;100887.59;5038818;28;20198;-73
2023/06/09 09:50:36;;;;;;;9.07;8.15;;;;;;;26.14;51.78;100889.75;5043513;28;20772;-72
2023/06/09 09:53:04;;;;;;;10.18;8.20;;;;;;;26.20;51.34;100891.69;5047198;28;20209;-72
2023/06/09 09:55:30;;;;;;;8.77;7.97;;;;;;;26.20;50.37;100886.22;5040312;28;20237;-73
2023/06/09 09:57:59;;;;;;;10.40;9.35;;;;;;;26.18;50.57;100879.25;5037033;28;20305;-72
2023/06/09 10:00:27;;;;;;;9.73;8.82;;;;;;;26.20;50.73;100886.22;5026629;28;20228;-73
2023/06/09 10:03:00;;;;;;;9.75;8.18;;;;;;;26.22;50.75;100886.03;5024566;28;20210;-71
2023/06/09 10:05:30;;;;;;;9.52;8.52;;;;;;;26.20;50.65;100880.75;5024861;28;20216;-75
2023/06/09 10:07:59;;;;;;;9.10;8.20;;;;;;;26.23;50.49;100883.13;5022239;28;20202;-73
2023/06/09 10:10:26;;;;;;;9.77;8.77;;;;;;;26.31;50.56;100887.66;5026717;28;20230;-73
2023/06/09 10:12:53;;;;;;;9.02;8.23;;;;;;;26.39;49.84;100886.66;5030899;28;20209;-72
2023/06/09 10:15:21;;;;;;;9.75;8.43;;;;;;;26.41;49.73;100888.16;5030756;28;20194;-72
2023/06/09 10:17:49;;;;;;;8.65;7.75;;;;;;;26.42;49.76;100884.41;5024199;28;20605;-72
2023/06/09 10:20:15;;;;;;;8.48;7.70;;;;;;;26.49;49.44;100884.47;5023740;28;20222;-71
2023/06/09 10:22:44;;;;;;;12.80;9.00;;;;;;;26.50;49.64;100880.72;5023687;28;20213;-71
2023/06/09 10:25:12;;;;;;;12.50;8.35;;;;;;;26.51;49.22;100883.22;5028537;28;20732;-74
2023/06/09 10:27:39;;;;;;;9.25;7.97;;;;;;;26.56;49.41;100880.75;5026559;28;20198;-73
2023/06/09 10:30:08;;;;;;;8.82;7.65;;;;;;;26.61;49.30;100878.28;5031185;28;20752;-71
2023/06/09 10:32:40;;;;;;;8.82;8.02;;;;;;;26.63;49.21;100886.28;5026799;28;20194;-72
2023/06/09 10:35:07;;;;;;;9.60;7.93;;;;;;;26.69;49.60;100880.06;5013297;28;20215;-73
2023/06/09 10:37:35;;;;;;;8.75;7.85;;;;;;;26.74;48.94;100880.28;5021031;28;20317;-72
2023/06/09 10:40:09;;;;;;;10.18;7.55;;;;;;;26.77;48.57;100868.97;5022874;28;20232;-72
2023/06/09 10:42:49;;;;;;;10.13;8.05;;;;;;;26.79;48.67;100869.63;5027335;28;20246;-73
2023/06/09 10:45:19;;;;;;;10.40;7.78;;;;;;;26.86;48.67;100856.88;5020222;28;20703;-72
2023/06/09 10:47:46;;;;;;;8.05;7.25;;;;;;;26.98;49.56;100867.28;5024850;28;20202;-72
2023/06/09 10:50:24;;;;;;;10.77;8.05;;;;;;;27.12;49.00;100860.84;5011882;28;20602;-71
2023/06/09 10:52:53;;;;;;;8.70;7.78;;;;;;;27.18;48.38;100862.78;5012984;28;20205;-71
2023/06/09 10:55:22;;;;;;;9.02;7.72;;;;;;;27.22;48.18;100864.09;5008457;28;20226;-72
2023/06/09 10:57:51;;;;;;;8.60;7.50;;;;;;;27.27;48.03;100867.03;5010179;28;20226;-71
2023/06/09 11:00:18;;;;;;;8.98;7.88;;;;;;;27.33;48.81;100860.78;5007292;28;20949;-73
2023/06/09 11:02:49;;;;;;;9.05;8.10;;;;;;;27.45;47.08;100870.09;5017992;28;20409;-73
2023/06/09 11:05:18;;;;;;;8.85;7.93;;;;;;;27.48;47.28;100860.66;5015188;28;20198;-72
2023/06/09 11:07:48;;;;;;;8.48;7.68;;;;;;;27.52;46.82;100865.53;5014385;28;20238;-71
2023/06/09 11:10:27;;;;;;;9.48;7.68;;;;;;;27.55;46.46;100862.38;5022995;28;20925;-70
2023/06/09 11:12:55;;;;;;;9.10;8.20;;;;;;;27.54;46.13;100868.06;5012316;28;20305;-71
2023/06/09 11:15:23;;;;;;;7.88;7.18;;;;;;;27.45;45.88;100863.78;5015478;28;20210;-71
2023/06/09 11:17:51;;;;;;;7.78;7.07;;;;;;;27.35;45.99;100864.16;5013560;28;20253;-71
2023/06/09 11:20:19;;;;;;;8.73;7.35;;;;;;;27.28;46.65;100863.25;5019668;28;20229;-72
2023/06/09 11:23:03;;;;;;;9.63;7.35;;;;;;;27.17;46.70;100864.69;5015506;28;20206;-71
2023/06/09 11:25:37;;;;;;;8.10;7.30;;;;;;;27.04;46.33;100867.34;5013277;28;20206;-71
2023/06/09 11:28:27;;;;;;;9.27;7.47;;;;;;;26.92;46.58;100863.41;5015802;28;20281;-70
2023/06/09 11:31:04;;;;;;;7.43;6.72;;;;;;;26.82;46.41;100869.22;5010792;28;20208;-70
2023/06/09 11:33:49;;;;;;;9.00;7.65;;;;;;;26.73;46.49;100856.72;5024496;28;20647;-71
2023/06/09 11:36:20;;;;;;;7.32;6.63;;;;;;;26.63;46.51;100861.69;5019732;28;20218;-71
2023/06/09 11:38:47;;;;;;;8.48;7.35;;;;;;;26.54;46.34;100860.13;5019979;28;20226;-72
2023/06/09 11:41:21;;;;;;;7.55;6.78;;;;;;;26.43;46.47;100863.41;5019228;28;20202;-70
2023/06/09 11:43:53;;;;;;;7.75;6.80;;;;;;;26.26;46.68;100852.69;5023441;28;20572;-70
2023/06/09 11:46:21;;;;;;;8.30;7.03;;;;;;;26.14;47.11;100857.00;5022103;28;20214;-70
2023/06/09 11:49:07;;;;;;;7.63;6.80;;;;;;;26.08;47.43;100862.38;5012191;28;20226;-72
2023/06/09 11:51:59;;;;;;;9.60;6.60;;;;;;;26.06;47.75;100859.81;5018026;28;20256;-69
2023/06/09 11:54:45;;;;;;;9.07;6.30;;;;;;;26.04;47.59;100859.16;5021436;28;20198;-72
2023/06/09 11:57:15;;;;;;;7.63;6.15;;;;;;;25.97;47.18;100863.72;5024597;28;20618;-72
2023/06/09 11:59:42;;;;;;;7.55;6.72;;;;;;;25.93;46.93;100865.13;5014595;28;20214;-71
2023/06/09 12:02:11;;;;;;;6.47;5.80;;;;;;;25.90;46.94;100863.63;5021371;28;20206;-70
2023/06/09 12:04:41;;;;;;;6.97;6.18;;;;;;;25.88;47.00;100862.13;5015497;28;20224;-73
2023/06/09 12:07:25;;;;;;;9.07;5.80;;;;;;;25.85;46.55;100865.25;5015673;28;20214;-74
2023/06/09 12:09:56;;;;;;;7.78;6.43;;;;;;;25.79;46.34;100860.56;5022232;28;20222;-76
2023/06/09 12:12:24;;;;;;;6.85;6.15;;;;;;;25.72;46.47;100865.94;5016094;28;20241;-75
2023/06/09 12:14:51;;;;;;;6.93;6.07;;;;;;;25.65;46.76;100869.59;5018491;28;20229;-74
2023/06/09 12:17:17;;;;;;;6.40;5.80;;;;;;;25.62;47.18;100865.34;5011618;28;20230;-74
2023/06/09 12:19:47;;;;;;;6.97;6.32;;;;;;;25.65;47.39;100864.13;5011123;28;20232;-75
2023/06/09 12:22:14;;;;;;;7.28;5.97;;;;;;;25.69;48.00;100860.00;5014930;28;20205;-74
2023/06/09 12:24:40;;;;;;;6.40;5.80;;;;;;;25.72;47.89;100857.75;5013998;28;20764;-73
2023/06/09 12:27:11;;;;;;;7.30;5.78;;;;;;;25.75;47.49;100870.16;5018586;28;20206;-74
2023/06/09 12:29:39;;;;;;;6.07;5.35;;;;;;;25.77;47.56;100857.19;5018264;28;20252;-74
2023/06/09 12:32:08;;;;;;;6.05;5.53;;;;;;;25.78;47.94;100862.44;5015370;28;20586;-74
2023/06/09 12:34:34;;;;;;;7.80;5.85;;;;;;;25.83;47.44;100856.41;5016769;28;20202;-75
2023/06/09 12:37:05;;;;;;;6.63;6.13;;;;;;;25.86;47.79;100856.00;5017930;28;20257;-74
2023/06/09 12:39:33;;;;;;;6.47;5.88;;;;;;;25.90;47.52;100854.59;5014893;28;20751;-75
2023/06/09 12:42:10;;;;;;;8.95;6.03;;;;;;;25.91;47.51;100853.56;5021600;28;20229;-77
2023/06/09 12:44:36;;;;;;;6.68;5.72;;;;;;;25.91;47.62;100848.97;5022870;28;20213;-75
2023/06/09 12:47:13;;;;;;;7.28;6.57;;;;;;;25.98;48.02;100840.00;5017765;28;20198;-75
2023/06/09 12:49:43;;;;;;;7.28;6.55;;;;;;;26.01;47.50;100850.50;5019795;28;20241;-76
2023/06/09 12:52:10;;;;;;;7.78;6.97;;;;;;;25.98;47.63;100843.56;5024536;28;20210;-76
2023/06/09 12:54:37;;;;;;;7.68;6.28;;;;;;;25.98;47.94;100848.19;5022174;28;20210;-76
2023/06/09 12:57:03;;;;;;;7.40;6.80;;;;;;;25.99;48.49;100841.66;5015766;28;20226;-74
2023/06/09 12:59:30;;;;;;;7.30;6.70;;;;;;;25.98;48.04;100843.56;5022695;28;20233;-76
2023/06/09 13:01:56;;;;;;;7.30;6.57;;;;;;;25.97;47.88;100833.72;5022348;28;20197;-76
2023/06/09 13:04:25;;;;;;;7.45;6.68;;;;;;;25.97;48.16;100841.91;5024737;28;20213;-76
2023/06/09 13:06:52;;;;;;;7.45;6.45;;;;;;;25.98;48.60;100835.38;5017783;28;20806;-76